Time;durP1;ratioP1;P1;durP2;ratioP2;P2;SDS_P1;SDS_P2;PMS_P1;PMS_P2;Temp;Humidity;BMP_temperature;BMP_pressure;BME280_temperature;BME280_humidity;BME280_pressure;Samples;Min_cycle;Max_cycle;Signal;HPM_P1;HPM_P2
2022/06/25 00:01:15;;;;;;;8.13;4.35;;;18.80;99.90;;;;;;5045214;28;20374;-75
2022/06/25 00:03:41;;;;;;;11.23;5.80;;;18.70;99.90;;;;;;5031464;28;20396;-74
2022/06/25 00:06:08;;;;;;;8.85;5.25;;;18.70;99.90;;;;;;5032238;28;20425;-75
2022/06/25 00:08:35;;;;;;;7.15;3.70;;;18.70;99.90;;;;;;5044802;28;20146;-76
2022/06/25 00:11:02;;;;;;;11.48;5.75;;;18.60;99.90;;;;;;5045864;28;20247;-75
2022/06/25 00:13:27;;;;;;;12.00;6.55;;;18.60;99.90;;;;;;5031081;28;20052;-75
2022/06/25 00:15:53;;;;;;;11.70;6.60;;;18.60;99.90;;;;;;5029122;28;20053;-75
2022/06/25 00:18:19;;;;;;;7.18;4.15;;;18.60;99.90;;;;;;5031768;28;20384;-77
2022/06/25 00:20:46;;;;;;;10.98;6.65;;;18.60;99.90;;;;;;5040045;28;20064;-75
2022/06/25 00:23:12;;;;;;;12.35;7.47;;;18.60;99.90;;;;;;5032889;28;20050;-75
2022/06/25 00:25:38;;;;;;;6.00;3.83;;;18.60;99.90;;;;;;5048073;28;20132;-74
2022/06/25 00:28:04;;;;;;;9.30;4.70;;;18.60;99.90;;;;;;5030628;28;20140;-76
2022/06/25 00:30:30;;;;;;;9.65;5.00;;;18.60;99.90;;;;;;5045549;28;20144;-75
2022/06/25 00:32:56;;;;;;;9.68;6.18;;;18.60;99.90;;;;;;5032581;28;20057;-76
2022/06/25 00:35:22;;;;;;;15.55;8.80;;;18.60;99.90;;;;;;5061628;28;20123;-76
2022/06/25 00:37:48;;;;;;;11.23;5.95;;;18.60;99.90;;;;;;5039123;28;20123;-75
2022/06/25 00:40:14;;;;;;;11.02;8.30;;;18.60;99.90;;;;;;5049507;28;20053;-76
2022/06/25 00:42:44;;;;;;;12.93;7.57;;;18.60;99.90;;;;;;5049880;28;20041;-76
2022/06/25 00:45:10;;;;;;;9.23;5.97;;;18.50;99.90;;;;;;5031842;28;20049;-77
2022/06/25 00:47:36;;;;;;;11.60;8.40;;;18.40;99.90;;;;;;5061227;28;20495;-76
2022/06/25 00:50:03;;;;;;;10.77;7.50;;;18.50;99.90;;;;;;5048203;28;20063;-77
2022/06/25 00:52:35;;;;;;;6.85;4.60;;;18.40;99.90;;;;;;5045071;28;20451;-77
2022/06/25 00:55:12;;;;;;;14.57;9.95;;;18.50;99.90;;;;;;5030881;28;20052;-76
2022/06/25 00:57:43;;;;;;;18.17;11.10;;;18.40;99.90;;;;;;5037135;28;20486;-76
2022/06/25 01:00:20;;;;;;;14.77;10.87;;;18.40;99.90;;;;;;5051696;28;20086;-77
2022/06/25 01:02:46;;;;;;;15.80;11.77;;;18.30;99.90;;;;;;5014670;28;20048;-75
2022/06/25 01:05:13;;;;;;;8.10;5.63;;;18.20;99.90;;;;;;5031622;28;20484;-76
2022/06/25 01:07:43;;;;;;;8.18;5.10;;;18.20;99.90;;;;;;5030322;28;20068;-76
2022/06/25 01:10:09;;;;;;;13.35;7.63;;;18.10;99.90;;;;;;5034701;28;20077;-76
2022/06/25 01:12:36;;;;;;;17.58;11.63;;;18.20;99.90;;;;;;5036590;28;20481;-76
2022/06/25 01:15:10;;;;;;;14.43;8.93;;;18.10;99.90;;;;;;5030999;28;20563;-76
2022/06/25 01:17:42;;;;;;;12.38;8.95;;;18.10;99.90;;;;;;5040570;28;20520;-76
2022/06/25 01:20:09;;;;;;;10.30;6.47;;;18.00;99.90;;;;;;5044557;28;20476;-76
2022/06/25 01:22:35;;;;;;;10.48;6.40;;;18.10;99.90;;;;;;5035125;28;20073;-77
2022/06/25 01:25:00;;;;;;;10.20;5.50;;;18.10;99.90;;;;;;5045162;28;20076;-78
2022/06/25 01:27:27;;;;;;;9.60;5.78;;;18.10;99.90;;;;;;5043455;28;20093;-77
2022/06/25 01:29:53;;;;;;;9.50;5.25;;;18.10;99.90;;;;;;5045052;28;20049;-77
2022/06/25 01:32:19;;;;;;;9.07;5.63;;;18.20;99.90;;;;;;5014541;28;20132;-76
2022/06/25 01:34:44;;;;;;;10.02;5.90;;;18.20;99.90;;;;;;5033993;28;20116;-76
2022/06/25 01:37:10;;;;;;;11.50;7.57;;;18.10;99.90;;;;;;5031327;28;20184;-76
2022/06/25 01:39:35;;;;;;;16.27;8.15;;;18.00;99.90;;;;;;5031950;28;20050;-77
2022/06/25 01:42:01;;;;;;;9.27;5.10;;;18.00;99.90;;;;;;5054546;28;20519;-80
2022/06/25 01:44:29;;;;;;;9.07;5.18;;;18.00;99.90;;;;;;5029641;28;20054;-76
2022/06/25 01:46:56;;;;;;;7.35;4.53;;;18.10;99.90;;;;;;5030968;28;20084;-78
2022/06/25 01:49:22;;;;;;;9.70;5.00;;;18.10;99.90;;;;;;5040486;28;20033;-76
2022/06/25 01:51:48;;;;;;;7.20;5.03;;;18.10;99.90;;;;;;5034683;28;20128;-77
2022/06/25 01:54:15;;;;;;;7.65;5.03;;;18.10;99.90;;;;;;5030721;28;20042;-77
2022/06/25 01:56:41;;;;;;;11.20;6.65;;;18.10;99.90;;;;;;5045063;28;20114;-77
2022/06/25 01:59:06;;;;;;;17.83;10.40;;;18.10;99.90;;;;;;5049246;28;20044;-78
2022/06/25 02:01:32;;;;;;;16.63;10.20;;;18.00;99.90;;;;;;5039142;28;20563;-76
2022/06/25 02:03:58;;;;;;;14.60;10.88;;;18.00;99.90;;;;;;5045134;28;20045;-76
2022/06/25 02:06:24;;;;;;;14.02;11.18;;;17.90;99.90;;;;;;5040728;28;20442;-76
2022/06/25 02:08:50;;;;;;;15.10;9.52;;;17.90;99.90;;;;;;5033794;28;20061;-77
2022/06/25 02:11:16;;;;;;;9.13;6.57;;;17.80;99.90;;;;;;5038432;28;20060;-76
2022/06/25 02:13:41;;;;;;;8.93;5.60;;;17.80;99.90;;;;;;5019400;28;20141;-76
2022/06/25 02:16:08;;;;;;;8.35;5.55;;;17.80;99.90;;;;;;5033551;28;20400;-75
2022/06/25 02:18:33;;;;;;;9.68;6.63;;;17.80;99.90;;;;;;5050869;28;20064;-76
2022/06/25 02:20:59;;;;;;;11.25;8.35;;;17.80;99.90;;;;;;5042081;28;20048;-76
2022/06/25 02:23:25;;;;;;;12.75;8.48;;;17.80;99.90;;;;;;5040649;28;20128;-76
2022/06/25 02:25:52;;;;;;;14.82;8.18;;;17.80;99.90;;;;;;5055302;28;20126;-76
2022/06/25 02:28:18;;;;;;;10.40;5.20;;;17.80;99.90;;;;;;5042306;28;20064;-76
2022/06/25 02:30:44;;;;;;;9.15;5.88;;;17.80;99.90;;;;;;5031196;28;20053;-75
2022/06/25 02:33:12;;;;;;;11.95;6.88;;;17.80;99.90;;;;;;5033591;28;20080;-75
2022/06/25 02:35:41;;;;;;;12.07;7.38;;;17.70;99.90;;;;;;5047330;28;20096;-76
2022/06/25 02:38:08;;;;;;;9.00;6.13;;;17.70;99.90;;;;;;5027363;28;20127;-77
2022/06/25 02:40:34;;;;;;;11.40;7.43;;;17.70;99.90;;;;;;5033430;28;20526;-76
2022/06/25 02:43:01;;;;;;;15.30;11.18;;;17.70;99.90;;;;;;5032666;28;20045;-74
2022/06/25 02:45:28;;;;;;;15.45;11.63;;;17.70;99.90;;;;;;5033611;28;20127;-74
2022/06/25 02:47:54;;;;;;;18.45;13.90;;;17.60;99.90;;;;;;5017229;28;20061;-75
2022/06/25 02:50:20;;;;;;;16.40;11.75;;;17.50;99.90;;;;;;5030041;28;20053;-75
2022/06/25 02:52:46;;;;;;;20.23;14.80;;;17.50;99.90;;;;;;5034467;28;20052;-75
2022/06/25 02:55:11;;;;;;;17.50;13.50;;;17.40;99.90;;;;;;5033561;28;20128;-74
2022/06/25 03:00:21;;;;;;;17.58;12.55;;;17.30;99.90;;;;;;5039051;28;20049;-75
2022/06/25 03:02:47;;;;;;;18.17;14.77;;;17.20;99.90;;;;;;5044667;28;20143;-74
2022/06/25 03:05:13;;;;;;;17.58;13.48;;;17.10;99.90;;;;;;5053668;28;20044;-75
2022/06/25 03:07:39;;;;;;;20.60;14.23;;;17.10;99.90;;;;;;5041049;28;20540;-76
2022/06/25 03:10:05;;;;;;;16.27;13.07;;;17.10;99.90;;;;;;5044034;28;20055;-75
2022/06/25 03:12:31;;;;;;;14.10;9.18;;;17.00;99.90;;;;;;5038388;28;20081;-75
2022/06/25 03:14:57;;;;;;;16.52;10.75;;;17.00;99.90;;;;;;5026427;28;20080;-76
2022/06/25 03:17:22;;;;;;;17.58;13.93;;;17.00;99.90;;;;;;5020897;28;20050;-74
2022/06/25 03:19:48;;;;;;;17.63;14.10;;;17.00;99.90;;;;;;5041989;28;20128;-75
2022/06/25 03:22:14;;;;;;;18.38;13.60;;;17.00;99.90;;;;;;5038150;28;20053;-74
2022/06/25 03:24:40;;;;;;;11.98;9.38;;;17.00;99.90;;;;;;5036905;28;20053;-75
2022/06/25 03:27:05;;;;;;;13.77;10.40;;;17.00;99.90;;;;;;5023246;28;20057;-80
2022/06/25 03:29:31;;;;;;;20.80;16.50;;;16.90;99.90;;;;;;5050936;28;20045;-74
2022/06/25 03:31:57;;;;;;;16.80;12.38;;;17.00;99.90;;;;;;5052520;28;20037;-74
2022/06/25 03:34:22;;;;;;;20.15;16.13;;;17.00;99.90;;;;;;5034910;28;20041;-75
2022/06/25 03:36:48;;;;;;;13.70;11.23;;;17.00;99.90;;;;;;5032848;28;20092;-76
2022/06/25 03:39:14;;;;;;;11.85;8.30;;;17.00;99.90;;;;;;5051250;28;20049;-75
2022/06/25 03:41:39;;;;;;;17.33;14.35;;;17.00;99.90;;;;;;5052792;28;20129;-74
2022/06/25 03:44:07;;;;;;;18.52;14.70;;;17.00;99.90;;;;;;5018139;28;20172;-75
2022/06/25 03:46:34;;;;;;;14.48;10.68;;;17.00;99.90;;;;;;5032408;28;20507;-74
2022/06/25 03:49:01;;;;;;;19.25;15.77;;;17.00;99.90;;;;;;5033257;28;20369;-75
2022/06/25 03:51:28;;;;;;;15.57;13.10;;;17.00;99.90;;;;;;5052240;28;20048;-75
2022/06/25 03:53:54;;;;;;;18.80;16.33;;;17.00;99.90;;;;;;5038423;28;20068;-74
2022/06/25 03:56:20;;;;;;;18.60;13.93;;;17.00;99.90;;;;;;5032138;28;20061;-74
2022/06/25 03:58:46;;;;;;;17.67;14.50;;;17.00;99.90;;;;;;5032452;28;20049;-75
2022/06/25 04:01:12;;;;;;;16.92;13.80;;;17.00;99.90;;;;;;5049667;28;20578;-74
2022/06/25 04:03:42;;;;;;;19.25;14.63;;;16.90;99.90;;;;;;5041911;28;20056;-73
2022/06/25 04:06:09;;;;;;;14.80;12.23;;;16.90;99.90;;;;;;5028896;28;20064;-74
2022/06/25 04:08:34;;;;;;;15.38;12.25;;;16.90;99.90;;;;;;5015723;28;20053;-75
2022/06/25 04:11:01;;;;;;;16.67;13.80;;;16.90;99.90;;;;;;5031685;28;20484;-74
2022/06/25 04:13:26;;;;;;;12.40;10.93;;;16.90;99.90;;;;;;5030905;28;20301;-73
2022/06/25 04:15:53;;;;;;;18.00;11.90;;;17.00;99.90;;;;;;5032130;28;20104;-76
2022/06/25 04:18:19;;;;;;;15.40;13.75;;;17.00;99.90;;;;;;5031761;28;20046;-74
2022/06/25 04:20:45;;;;;;;15.65;12.85;;;17.00;99.90;;;;;;5015208;28;20049;-75
2022/06/25 04:23:11;;;;;;;13.63;11.27;;;17.00;99.90;;;;;;5040266;28;20056;-75
2022/06/25 04:25:37;;;;;;;17.90;14.27;;;17.00;99.90;;;;;;5037594;28;20075;-74
2022/06/25 04:30:48;;;;;;;15.80;14.07;;;17.00;99.90;;;;;;5032550;28;20057;-74
2022/06/25 04:33:14;;;;;;;17.77;14.75;;;17.00;99.90;;;;;;5039793;28;20044;-75
2022/06/25 04:35:40;;;;;;;15.90;12.93;;;17.00;99.90;;;;;;5021779;28;20060;-77
2022/06/25 04:38:07;;;;;;;18.83;14.40;;;17.00;99.90;;;;;;5050753;28;20037;-74
2022/06/25 04:40:33;;;;;;;19.83;13.48;;;17.10;99.90;;;;;;5041344;28;20084;-73
2022/06/25 04:42:59;;;;;;;15.55;12.13;;;17.10;99.90;;;;;;5030424;28;20049;-74
2022/06/25 04:45:25;;;;;;;13.82;11.90;;;17.10;99.90;;;;;;5031670;28;20041;-74
2022/06/25 04:47:51;;;;;;;14.23;10.82;;;17.10;99.90;;;;;;5044824;28;20106;-75
2022/06/25 04:50:16;;;;;;;14.25;12.63;;;17.20;99.90;;;;;;5031715;28;20045;-74
2022/06/25 04:52:42;;;;;;;13.20;10.68;;;17.30;99.90;;;;;;5031544;28;20049;-73
2022/06/25 04:55:08;;;;;;;15.73;12.82;;;17.40;99.90;;;;;;5030904;28;20045;-74
2022/06/25 04:57:34;;;;;;;11.80;9.68;;;17.50;99.90;;;;;;5019884;28;20064;-74
2022/06/25 04:59:59;;;;;;;12.35;10.82;;;17.80;99.90;;;;;;5015287;28;20049;-74
2022/06/25 05:02:25;;;;;;;12.93;8.95;;;18.30;99.90;;;;;;5030284;28;20041;-74
2022/06/25 05:04:51;;;;;;;12.32;9.77;;;18.80;99.90;;;;;;5033546;28;20042;-73
2022/06/25 05:07:16;;;;;;;10.95;8.10;;;19.10;99.90;;;;;;5030662;28;20056;-74
2022/06/25 05:09:42;;;;;;;9.35;7.75;;;19.80;99.90;;;;;;5030747;28;20085;-75
2022/06/25 05:12:08;;;;;;;8.68;7.22;;;20.30;99.90;;;;;;5019857;28;20476;-76
2022/06/25 05:14:34;;;;;;;10.23;6.65;;;20.70;99.90;;;;;;5028581;28;20053;-73
2022/06/25 05:16:59;;;;;;;9.98;6.95;;;21.10;99.90;;;;;;5037784;28;20049;-73
2022/06/25 05:19:26;;;;;;;9.50;6.32;;;21.50;99.90;;;;;;5032629;28;20049;-73
2022/06/25 05:21:51;;;;;;;7.65;5.75;;;22.20;99.90;;;;;;5047728;28;20401;-74
2022/06/25 05:24:17;;;;;;;8.68;5.85;;;23.00;99.90;;;;;;5061413;28;20049;-73
2022/06/25 05:26:43;;;;;;;8.88;5.75;;;22.70;99.90;;;;;;5030986;28;20056;-74
2022/06/25 05:29:09;;;;;;;8.23;5.85;;;22.60;99.90;;;;;;5037598;28;20416;-74
2022/06/25 05:31:34;;;;;;;8.38;4.97;;;22.90;99.90;;;;;;5049451;28;20127;-75
2022/06/25 05:34:00;;;;;;;7.90;4.90;;;23.20;99.90;;;;;;5038514;28;20056;-74
2022/06/25 05:36:25;;;;;;;8.75;5.15;;;23.50;99.90;;;;;;5046105;28;20052;-74
2022/06/25 05:38:51;;;;;;;7.97;5.22;;;23.40;99.90;;;;;;5034700;28;20046;-74
2022/06/25 05:41:17;;;;;;;10.20;6.07;;;23.70;99.90;;;;;;5034520;28;20036;-73
2022/06/25 05:43:43;;;;;;;8.20;5.07;;;23.80;99.90;;;;;;5040033;28;20488;-74
2022/06/25 05:46:09;;;;;;;9.43;4.70;;;24.10;99.90;;;;;;5047071;28;20048;-74
2022/06/25 05:48:35;;;;;;;8.52;4.75;;;24.60;99.90;;;;;;5043827;28;20053;-75
2022/06/25 05:51:01;;;;;;;10.50;4.50;;;24.50;99.90;;;;;;5030780;28;20054;-74
2022/06/25 05:53:27;;;;;;;8.23;4.50;;;24.50;99.90;;;;;;5034104;28;20148;-75
2022/06/25 05:55:53;;;;;;;8.80;4.50;;;24.40;99.90;;;;;;5030006;28;20049;-74
2022/06/25 05:58:19;;;;;;;8.45;4.30;;;25.00;99.90;;;;;;5035089;28;20458;-75
2022/06/25 06:00:46;;;;;;;8.52;4.45;;;24.90;99.90;;;;;;5034274;28;20071;-75
2022/06/25 06:03:11;;;;;;;6.68;4.25;;;25.40;99.90;;;;;;5034504;28;20052;-78
2022/06/25 06:05:40;;;;;;;8.38;3.95;;;25.30;99.90;;;;;;5037628;28;20041;-75
2022/06/25 06:08:06;;;;;;;7.50;3.83;;;25.40;99.90;;;;;;5035921;28;20053;-75
2022/06/25 06:10:32;;;;;;;7.07;4.40;;;25.60;99.90;;;;;;5036564;28;20100;-75
2022/06/25 06:12:58;;;;;;;6.40;4.40;;;26.00;99.90;;;;;;5036083;28;20077;-77
2022/06/25 06:15:24;;;;;;;8.85;4.15;;;25.80;99.90;;;;;;5032874;28;20080;-77
2022/06/25 06:17:49;;;;;;;6.90;3.88;;;26.10;99.90;;;;;;5034641;28;20037;-75
2022/06/25 06:20:15;;;;;;;7.95;3.90;;;26.50;98.40;;;;;;5034341;28;20116;-74
2022/06/25 06:22:41;;;;;;;7.22;3.58;;;26.50;99.20;;;;;;5025607;28;20047;-75
2022/06/25 06:25:07;;;;;;;6.95;3.83;;;26.70;97.60;;;;;;5036065;28;20052;-76
2022/06/25 06:27:33;;;;;;;6.78;3.70;;;27.10;96.60;;;;;;5033898;28;20053;-75
2022/06/25 06:29:59;;;;;;;7.13;3.20;;;27.30;95.70;;;;;;5039880;28;20167;-74
2022/06/25 06:32:24;;;;;;;5.47;3.30;;;27.10;94.70;;;;;;5035303;28;20077;-75
2022/06/25 06:34:50;;;;;;;8.02;3.20;;;27.00;95.80;;;;;;5036248;28;20041;-76
2022/06/25 06:37:16;;;;;;;7.72;3.38;;;26.90;95.60;;;;;;5033401;28;20045;-76
2022/06/25 06:39:42;;;;;;;8.20;3.53;;;27.00;95.70;;;;;;5034504;28;20056;-75
2022/06/25 06:42:08;;;;;;;7.05;3.40;;;26.70;95.60;;;;;;5049093;28;20041;-76
2022/06/25 06:44:34;;;;;;;7.30;3.28;;;26.40;96.60;;;;;;5034132;28;20053;-77
2022/06/25 06:46:59;;;;;;;8.13;3.17;;;26.70;96.60;;;;;;5034443;28;20111;-75
2022/06/25 06:49:25;;;;;;;8.38;3.55;;;27.00;94.50;;;;;;5033734;28;20540;-77
2022/06/25 06:51:51;;;;;;;6.90;3.30;;;27.00;94.30;;;;;;5037446;28;20045;-75
2022/06/25 06:54:16;;;;;;;6.93;2.85;;;27.30;93.90;;;;;;5020170;28;20045;-74
2022/06/25 06:56:42;;;;;;;5.95;2.80;;;27.00;93.80;;;;;;5036687;28;20051;-75
2022/06/25 06:59:08;;;;;;;6.50;2.80;;;27.20;92.70;;;;;;5016293;28;20380;-76
2022/06/25 07:01:34;;;;;;;7.28;3.08;;;27.40;91.60;;;;;;5033853;28;20054;-77
2022/06/25 07:04:00;;;;;;;7.68;3.38;;;27.20;91.50;;;;;;5032973;28;20124;-77
2022/06/25 07:06:26;;;;;;;6.78;3.13;;;27.30;91.80;;;;;;5038247;28;20051;-76
2022/06/25 07:08:52;;;;;;;6.70;2.80;;;27.40;93.90;;;;;;5032248;28;20048;-76
2022/06/25 07:11:30;;;;;;;5.65;2.70;;;27.70;91.80;;;;;;5011209;28;20053;-77
2022/06/25 07:13:57;;;;;;;6.88;2.72;;;27.80;90.80;;;;;;5037943;28;20125;-77
2022/06/25 07:16:23;;;;;;;6.88;2.72;;;27.80;90.90;;;;;;5037210;28;20045;-77
2022/06/25 07:18:50;;;;;;;6.45;3.05;;;27.70;90.80;;;;;;5034880;28;20373;-78
2022/06/25 07:21:16;;;;;;;6.13;3.00;;;27.60;91.10;;;;;;5016602;28;20132;-78
2022/06/25 07:23:42;;;;;;;6.18;2.60;;;27.70;90.70;;;;;;5023175;28;20129;-78
2022/06/25 07:26:08;;;;;;;5.18;2.58;;;27.70;90.30;;;;;;5033057;28;20099;-76
2022/06/25 07:28:33;;;;;;;6.70;2.60;;;27.80;90.70;;;;;;5032247;28;20081;-77
2022/06/25 07:30:59;;;;;;;5.80;2.45;;;27.80;90.60;;;;;;5049479;28;20061;-77
2022/06/25 07:33:25;;;;;;;5.88;2.63;;;27.80;90.40;;;;;;5053858;28;20051;-76
2022/06/25 07:35:50;;;;;;;7.50;2.80;;;28.00;88.90;;;;;;5038505;28;20081;-76
2022/06/25 07:38:16;;;;;;;6.47;2.72;;;27.90;88.10;;;;;;5045808;28;20041;-77
2022/06/25 07:40:42;;;;;;;8.20;2.60;;;27.80;84.60;;;;;;5034339;28;20072;-78
2022/06/25 07:43:08;;;;;;;7.68;2.90;;;27.80;87.70;;;;;;5031678;28;20047;-77
2022/06/25 07:45:33;;;;;;;5.82;2.80;;;28.00;88.30;;;;;;5035689;28;20116;-76
2022/06/25 07:47:59;;;;;;;6.10;2.63;;;28.20;86.40;;;;;;5037596;28;20117;-77
2022/06/25 07:53:09;;;;;;;5.82;2.33;;;28.30;83.20;;;;;;5032478;28;20099;-78
2022/06/25 07:55:35;;;;;;;8.15;2.70;;;28.50;84.70;;;;;;5032386;28;20049;-78
2022/06/25 07:58:00;;;;;;;6.30;2.70;;;28.40;76.20;;;;;;5038143;28;20480;-79
2022/06/25 08:00:26;;;;;;;6.03;2.42;;;28.10;82.30;;;;;;5033046;28;20054;-78
2022/06/25 08:02:52;;;;;;;6.53;2.35;;;28.10;81.30;;;;;;5034809;28;20050;-77
2022/06/25 08:05:18;;;;;;;5.35;2.28;;;28.20;84.40;;;;;;5032498;28;20049;-76
2022/06/25 08:07:46;;;;;;;6.07;2.25;;;28.40;77.80;;;;;;5046915;28;20530;-78
2022/06/25 08:10:12;;;;;;;6.57;2.60;;;28.20;79.40;;;;;;5051930;28;20056;-78
2022/06/25 08:12:38;;;;;;;9.00;2.70;;;28.00;82.00;;;;;;5038553;28;20053;-78
2022/06/25 08:15:04;;;;;;;8.07;2.58;;;27.90;83.10;;;;;;5047212;28;20469;-78
2022/06/25 08:17:30;;;;;;;5.93;2.55;;;28.20;82.30;;;;;;5039085;28;20473;-79
2022/06/25 08:19:56;;;;;;;6.50;2.10;;;28.50;79.70;;;;;;5032086;28;20057;-80
2022/06/25 08:22:22;;;;;;;6.35;2.25;;;28.70;75.90;;;;;;5027585;28;20046;-78
2022/06/25 08:24:47;;;;;;;6.63;2.40;;;28.60;78.40;;;;;;5039940;28;20056;-80
2022/06/25 08:27:13;;;;;;;8.18;2.38;;;28.40;78.50;;;;;;5038374;28;20127;-80
2022/06/25 08:29:39;;;;;;;7.03;2.83;;;28.10;79.30;;;;;;5052491;28;20476;-79
2022/06/25 08:32:05;;;;;;;6.45;2.20;;;27.90;79.60;;;;;;5052866;28;20304;-80
2022/06/25 08:34:30;;;;;;;8.95;2.58;;;28.10;82.40;;;;;;5034589;28;20037;-78
2022/06/25 08:36:56;;;;;;;7.93;2.40;;;28.20;78.70;;;;;;5052864;28;20041;-79
2022/06/25 08:39:22;;;;;;;6.90;2.40;;;28.00;77.90;;;;;;5035141;28;20060;-78
2022/06/25 08:41:47;;;;;;;6.97;2.60;;;27.70;80.60;;;;;;5034231;28;20460;-78
2022/06/25 08:44:13;;;;;;;7.75;2.50;;;27.70;81.80;;;;;;5036127;28;20385;-78
2022/06/25 08:46:40;;;;;;;6.38;2.50;;;27.70;78.80;;;;;;5051638;28;20480;-78
2022/06/25 08:49:07;;;;;;;7.53;2.70;;;27.40;80.10;;;;;;5051979;28;20045;-79
2022/06/25 08:51:34;;;;;;;8.90;2.60;;;27.50;84.00;;;;;;5034536;28;20055;-78
2022/06/25 08:54:02;;;;;;;6.25;2.03;;;27.40;84.90;;;;;;5031119;28;20041;-78
2022/06/25 08:56:28;;;;;;;5.93;2.45;;;27.50;86.20;;;;;;5031456;28;20053;-80
2022/06/25 08:58:55;;;;;;;8.35;2.55;;;27.80;84.80;;;;;;5039087;28;20124;-78
2022/06/25 09:01:21;;;;;;;7.72;2.70;;;27.90;78.00;;;;;;5048696;28;20055;-79
2022/06/25 09:03:47;;;;;;;6.78;2.50;;;27.80;75.00;;;;;;5043247;28;20097;-78
2022/06/25 09:06:14;;;;;;;5.68;2.38;;;27.50;75.90;;;;;;5043646;28;20045;-79
2022/06/25 09:08:41;;;;;;;7.72;2.10;;;27.20;82.80;;;;;;5039471;28;20057;-79
2022/06/25 09:11:07;;;;;;;6.57;2.20;;;27.30;78.90;;;;;;5036550;28;20057;-78
2022/06/25 09:13:33;;;;;;;5.93;2.20;;;27.40;79.70;;;;;;5037441;28;20052;-80
2022/06/25 09:15:58;;;;;;;5.00;2.10;;;27.30;76.90;;;;;;5039307;28;20055;-77
2022/06/25 09:18:24;;;;;;;4.82;1.90;;;27.20;76.40;;;;;;5048353;28;20426;-77
2022/06/25 09:20:56;;;;;;;5.22;2.00;;;27.00;80.00;;;;;;5032601;28;20085;-77
2022/06/25 09:23:22;;;;;;;6.45;2.20;;;27.00;82.20;;;;;;5041398;28;20045;-80
2022/06/25 09:26:00;;;;;;;6.53;1.95;;;27.10;75.20;;;;;;5037034;28;20096;-79
2022/06/25 09:28:32;;;;;;;5.85;1.95;;;26.90;73.60;;;;;;5041111;28;20060;-78
2022/06/25 09:30:58;;;;;;;7.25;2.00;;;26.60;80.30;;;;;;5029961;28;20060;-79
2022/06/25 09:33:23;;;;;;;6.93;2.00;;;26.40;82.30;;;;;;5043177;28;20124;-80
2022/06/25 09:35:52;;;;;;;5.55;2.08;;;26.40;85.00;;;;;;5042780;28;20042;-78
2022/06/25 09:38:19;;;;;;;7.38;2.17;;;26.40;86.80;;;;;;5039398;28;20053;-80
2022/06/25 09:40:56;;;;;;;7.05;2.35;;;26.50;86.40;;;;;;5040760;28;20494;-78
2022/06/25 09:43:24;;;;;;;6.25;2.50;;;26.50;80.00;;;;;;5045121;28;20111;-77
2022/06/25 09:45:52;;;;;;;6.30;2.17;;;26.30;85.40;;;;;;5046214;28;20052;-77
2022/06/25 09:48:26;;;;;;;7.95;2.60;;;26.40;88.10;;;;;;5036472;28;20099;-77
2022/06/25 09:51:19;;;;;;;6.15;2.20;;;26.70;88.50;;;;;;5032864;28;20054;-78
2022/06/25 09:53:52;;;;;;;6.60;2.47;;;27.00;83.80;;;;;;5030198;28;20084;-77
2022/06/25 09:56:25;;;;;;;5.45;2.17;;;27.20;80.60;;;;;;5033604;28;20046;-78
2022/06/25 09:58:53;;;;;;;6.32;2.60;;;26.70;84.00;;;;;;5048013;28;20045;-79
2022/06/25 10:01:21;;;;;;;7.38;2.30;;;26.80;86.40;;;;;;5043437;28;20041;-77
2022/06/25 10:03:49;;;;;;;6.13;2.70;;;27.20;86.40;;;;;;5048493;28;20040;-76
2022/06/25 10:06:16;;;;;;;6.15;2.50;;;27.40;77.70;;;;;;5026094;28;20115;-76
2022/06/25 10:08:55;;;;;;;6.18;2.22;;;27.30;78.90;;;;;;5041540;28;20067;-78
2022/06/25 10:11:25;;;;;;;5.55;2.22;;;27.10;79.90;;;;;;5014958;28;1102815;-78
2022/06/25 10:13:51;;;;;;;6.88;2.15;;;27.00;84.40;;;;;;5044905;28;20064;-77
2022/06/25 10:16:21;;;;;;;5.35;2.28;;;27.00;85.50;;;;;;5018590;28;20045;-78
2022/06/25 10:18:49;;;;;;;6.93;2.30;;;27.00;81.60;;;;;;5040092;28;20053;-77
2022/06/25 10:21:16;;;;;;;5.82;2.20;;;27.00;83.30;;;;;;5034733;28;20064;-76
2022/06/25 10:23:43;;;;;;;6.07;2.17;;;27.20;80.90;;;;;;5046558;28;20116;-76
2022/06/25 10:26:10;;;;;;;6.50;2.10;;;27.30;83.30;;;;;;5053859;28;20044;-76
2022/06/25 10:28:36;;;;;;;6.05;2.13;;;27.40;80.30;;;;;;5049917;28;20057;-79
2022/06/25 10:31:12;;;;;;;9.07;2.10;;;27.50;78.70;;;;;;5033524;28;20468;-76
2022/06/25 10:33:58;;;;;;;6.40;2.00;;;27.50;78.60;;;;;;5017498;28;20051;-78
2022/06/25 10:36:47;;;;;;;6.45;1.73;;;27.80;82.70;;;;;;5052654;28;20080;-76
2022/06/25 10:39:36;;;;;;;6.85;2.13;;;28.00;77.70;;;;;;5053487;28;20049;-75
2022/06/25 10:45:04;;;;;;;8.90;3.58;;;28.20;76.90;;;;;;5046940;28;20041;-76
2022/06/25 10:47:51;;;;;;;10.45;4.13;;;28.40;71.80;;;;;;5037010;28;20041;-77
2022/06/25 10:50:23;;;;;;;6.38;1.80;;;28.30;74.20;;;;;;5051788;28;20076;-76
2022/06/25 10:53:11;;;;;;;6.57;1.50;;;28.40;74.40;;;;;;5039438;28;20043;-79
2022/06/25 10:55:58;;;;;;;6.30;1.80;;;28.40;70.10;;;;;;5030208;28;20045;-78
2022/06/25 10:58:41;;;;;;;5.63;1.77;;;28.20;70.40;;;;;;5040883;28;20048;-76
2022/06/25 11:01:18;;;;;;;8.27;1.90;;;28.50;65.20;;;;;;5051732;28;20048;-75
2022/06/25 11:03:44;;;;;;;5.13;1.60;;;28.40;69.50;;;;;;5047039;28;20061;-75
2022/06/25 11:06:40;;;;;;;6.82;1.50;;;28.20;68.00;;;;;;5037408;28;20077;-78
2022/06/25 11:09:09;;;;;;;6.82;1.70;;;28.20;71.40;;;;;;5028591;28;20049;-77
2022/06/25 11:11:35;;;;;;;5.47;1.50;;;28.30;75.40;;;;;;5036654;28;20127;-77
2022/06/25 11:14:04;;;;;;;4.88;1.50;;;28.50;74.80;;;;;;5051504;28;20041;-77
2022/06/25 11:16:30;;;;;;;4.95;1.70;;;28.60;69.30;;;;;;5049671;28;20135;-79
2022/06/25 11:19:00;;;;;;;4.75;1.50;;;28.70;70.70;;;;;;5057774;28;20045;-75
2022/06/25 11:21:35;;;;;;;6.05;1.58;;;28.80;64.20;;;;;;5035772;28;20155;-76
2022/06/25 11:24:12;;;;;;;4.57;1.40;;;28.60;65.70;;;;;;5029880;28;20364;-75
2022/06/25 11:29:35;;;;;;;5.13;1.40;;;28.40;67.00;;;;;;5037220;28;20461;-76
2022/06/25 11:32:01;;;;;;;4.03;1.20;;;28.30;64.90;;;;;;5023239;28;20065;-79
2022/06/25 11:34:29;;;;;;;5.13;1.20;;;28.00;62.00;;;;;;5031658;28;20041;-83
2022/06/25 11:37:11;;;;;;;6.07;1.50;;;27.90;65.90;;;;;;5028166;28;20049;-77
2022/06/25 11:39:38;;;;;;;4.97;1.40;;;28.10;62.30;;;;;;5037489;28;20495;-78
2022/06/25 11:42:08;;;;;;;4.70;1.15;;;28.20;60.70;;;;;;5034476;28;20092;-80
2022/06/25 11:44:38;;;;;;;6.60;1.30;;;28.10;63.50;;;;;;5031224;28;20088;-78
2022/06/25 11:47:04;;;;;;;6.03;1.38;;;28.00;63.40;;;;;;5032665;28;20107;-82
2022/06/25 11:49:42;;;;;;;5.70;1.50;;;28.10;63.00;;;;;;5031989;28;20098;-76
2022/06/25 11:52:09;;;;;;;4.20;1.17;;;28.10;67.10;;;;;;4979853;28;20062;-77
2022/06/25 11:54:36;;;;;;;4.53;1.30;;;28.10;65.70;;;;;;4967185;28;20046;-76
2022/06/25 11:57:04;;;;;;;4.53;1.20;;;28.10;64.60;;;;;;5041572;28;20095;-79
2022/06/25 11:59:38;;;;;;;3.85;1.20;;;28.00;63.70;;;;;;5037323;28;20496;-79
2022/06/25 12:02:05;;;;;;;4.70;1.40;;;27.90;61.90;;;;;;5020170;28;20726;-76
2022/06/25 12:04:43;;;;;;;4.72;1.35;;;27.70;64.40;;;;;;5031986;28;20124;-86
2022/06/25 12:07:17;;;;;;;5.45;1.55;;;27.70;68.90;;;;;;5028949;28;20480;-76
2022/06/25 12:09:42;;;;;;;5.03;1.25;;;28.00;64.60;;;;;;5031929;28;20137;-79
2022/06/25 12:12:09;;;;;;;5.63;1.42;;;28.10;66.50;;;;;;5032241;28;20132;-78
2022/06/25 12:14:35;;;;;;;4.63;1.30;;;28.50;62.60;;;;;;5039483;28;20037;-77
2022/06/25 12:17:00;;;;;;;4.80;1.27;;;28.60;65.00;;;;;;5046935;28;20184;-79
2022/06/25 12:19:48;;;;;;;5.60;1.27;;;28.80;64.80;;;;;;5050096;28;20435;-76
2022/06/25 12:22:28;;;;;;;5.00;1.40;;;29.00;63.90;;;;;;5029474;28;20132;-76
2022/06/25 12:24:58;;;;;;;4.88;1.20;;;29.10;64.70;;;;;;5043712;28;20049;-77
2022/06/25 12:27:25;;;;;;;7.22;1.40;;;29.30;65.70;;;;;;5014624;28;20061;-76
2022/06/25 12:29:53;;;;;;;5.25;1.40;;;29.40;60.00;;;;;;5028488;28;20049;-78
2022/06/25 12:32:19;;;;;;;5.57;1.30;;;29.00;60.10;;;;;;5015978;28;20114;-77
2022/06/25 12:34:50;;;;;;;4.38;1.30;;;28.60;63.00;;;;;;5028378;28;20050;-75
2022/06/25 12:37:33;;;;;;;5.87;1.30;;;28.40;62.30;;;;;;5029681;28;20076;-76
2022/06/25 12:39:59;;;;;;;4.75;1.30;;;28.20;63.50;;;;;;5036374;28;20331;-78
2022/06/25 12:42:28;;;;;;;4.07;1.13;;;27.70;64.00;;;;;;5046866;28;20331;-76
2022/06/25 12:44:55;;;;;;;6.10;1.30;;;27.50;65.30;;;;;;5040652;28;20547;-77
2022/06/25 12:47:20;;;;;;;5.38;1.35;;;27.50;67.30;;;;;;5029196;28;20133;-75
2022/06/25 12:49:47;;;;;;;5.07;1.40;;;27.40;67.40;;;;;;5029487;28;20564;-75
2022/06/25 12:52:17;;;;;;;3.80;1.30;;;27.20;68.70;;;;;;5028792;28;20072;-75
2022/06/25 12:54:48;;;;;;;3.80;1.20;;;27.20;68.40;;;;;;5028101;28;20047;-75
2022/06/25 12:57:35;;;;;;;5.28;1.35;;;27.20;69.80;;;;;;5027241;28;20053;-75